sensor_id;sensor_type;location;lat;lon;timestamp;pressure;altitude;pressure_sealevel;temperature;humidity
74895;BME280;63447;49.446;8.666;2023-05-27T00:01:56;101186.34;;;16.50;44.85
74895;BME280;63447;49.446;8.666;2023-05-27T00:04:24;101148.00;;;16.19;46.20
74895;BME280;63447;49.446;8.666;2023-05-27T00:06:53;101173.50;;;16.21;45.83
74895;BME280;63447;49.446;8.666;2023-05-27T00:09:20;101164.13;;;16.13;46.30
74895;BME280;63447;49.446;8.666;2023-05-27T00:11:46;101175.94;;;16.22;46.34
74895;BME280;63447;49.446;8.666;2023-05-27T00:14:14;101178.81;;;16.38;45.83
74895;BME280;63447;49.446;8.666;2023-05-27T00:16:49;101177.19;;;16.37;45.80
74895;BME280;63447;49.446;8.666;2023-05-27T00:19:17;101179.81;;;15.93;46.81
74895;BME280;63447;49.446;8.666;2023-05-27T00:21:45;101171.09;;;15.71;48.01
74895;BME280;63447;49.446;8.666;2023-05-27T00:24:12;101176.53;;;15.67;48.08
74895;BME280;63447;49.446;8.666;2023-05-27T00:26:38;101173.16;;;15.49;48.40
74895;BME280;63447;49.446;8.666;2023-05-27T00:29:04;101169.59;;;15.85;47.36
74895;BME280;63447;49.446;8.666;2023-05-27T00:31:29;101170.75;;;15.97;46.65
74895;BME280;63447;49.446;8.666;2023-05-27T00:33:59;101170.97;;;15.91;46.99
74895;BME280;63447;49.446;8.666;2023-05-27T00:36:27;101163.91;;;15.94;46.30
74895;BME280;63447;49.446;8.666;2023-05-27T00:38:55;101165.91;;;15.81;47.19
74895;BME280;63447;49.446;8.666;2023-05-27T00:41:23;101167.41;;;15.79;47.56
74895;BME280;63447;49.446;8.666;2023-05-27T00:43:49;101179.56;;;15.86;47.33
74895;BME280;63447;49.446;8.666;2023-05-27T00:46:14;101168.44;;;15.86;46.39
74895;BME280;63447;49.446;8.666;2023-05-27T00:48:40;101166.03;;;15.85;46.47
74895;BME280;63447;49.446;8.666;2023-05-27T00:51:11;101169.25;;;15.99;46.67
74895;BME280;63447;49.446;8.666;2023-05-27T00:53:48;101180.97;;;15.92;47.20
74895;BME280;63447;49.446;8.666;2023-05-27T00:56:20;101180.03;;;15.88;47.67
74895;BME280;63447;49.446;8.666;2023-05-27T00:58:51;101167.28;;;15.75;48.29
74895;BME280;63447;49.446;8.666;2023-05-27T01:01:16;101135.50;;;15.52;47.46
74895;BME280;63447;49.446;8.666;2023-05-27T01:03:47;101172.16;;;15.78;47.02
74895;BME280;63447;49.446;8.666;2023-05-27T01:06:25;101171.47;;;15.81;47.84
74895;BME280;63447;49.446;8.666;2023-05-27T01:09:38;101175.84;;;15.70;48.23
74895;BME280;63447;49.446;8.666;2023-05-27T01:14:54;101180.25;;;15.71;47.40
74895;BME280;63447;49.446;8.666;2023-05-27T01:17:19;101182.09;;;15.67;47.21
74895;BME280;63447;49.446;8.666;2023-05-27T01:19:48;101162.38;;;15.60;47.09
74895;BME280;63447;49.446;8.666;2023-05-27T01:22:17;101167.94;;;15.48;47.56
74895;BME280;63447;49.446;8.666;2023-05-27T01:24:46;101146.41;;;15.57;46.71
74895;BME280;63447;49.446;8.666;2023-05-27T01:27:14;101146.06;;;15.58;46.46
74895;BME280;63447;49.446;8.666;2023-05-27T01:29:40;101155.78;;;15.52;48.17
74895;BME280;63447;49.446;8.666;2023-05-27T01:32:40;101147.31;;;15.49;47.98
74895;BME280;63447;49.446;8.666;2023-05-27T01:38:12;101159.59;;;15.48;47.89
74895;BME280;63447;49.446;8.666;2023-05-27T01:40:42;101118.78;;;15.27;48.38
74895;BME280;63447;49.446;8.666;2023-05-27T01:43:09;101150.53;;;15.26;48.78
74895;BME280;63447;49.446;8.666;2023-05-27T01:45:41;101140.22;;;15.27;48.90
74895;BME280;63447;49.446;8.666;2023-05-27T01:48:09;101152.16;;;15.27;48.37
74895;BME280;63447;49.446;8.666;2023-05-27T01:50:39;101145.31;;;15.37;47.67
74895;BME280;63447;49.446;8.666;2023-05-27T01:53:05;101118.66;;;15.24;47.46
74895;BME280;63447;49.446;8.666;2023-05-27T01:55:30;101118.31;;;15.25;46.90
74895;BME280;63447;49.446;8.666;2023-05-27T01:57:56;101143.25;;;15.46;47.11
74895;BME280;63447;49.446;8.666;2023-05-27T02:00:24;101149.56;;;15.22;48.06
74895;BME280;63447;49.446;8.666;2023-05-27T02:02:52;101139.03;;;14.83;48.99
74895;BME280;63447;49.446;8.666;2023-05-27T02:05:18;101144.31;;;14.97;49.02
74895;BME280;63447;49.446;8.666;2023-05-27T02:07:43;101137.72;;;15.01;48.19
74895;BME280;63447;49.446;8.666;2023-05-27T02:10:11;101119.16;;;14.93;48.13
74895;BME280;63447;49.446;8.666;2023-05-27T02:12:37;101135.97;;;15.09;47.69
74895;BME280;63447;49.446;8.666;2023-05-27T02:15:02;101140.84;;;15.12;47.63
74895;BME280;63447;49.446;8.666;2023-05-27T02:17:30;101110.81;;;14.93;47.94
74895;BME280;63447;49.446;8.666;2023-05-27T02:19:56;101142.00;;;15.11;48.39
74895;BME280;63447;49.446;8.666;2023-05-27T02:22:23;101123.47;;;15.03;47.58
74895;BME280;63447;49.446;8.666;2023-05-27T02:24:53;101135.16;;;15.08;47.13
74895;BME280;63447;49.446;8.666;2023-05-27T02:27:20;101135.63;;;14.98;47.67
74895;BME280;63447;49.446;8.666;2023-05-27T02:29:48;101150.81;;;15.01;48.23
74895;BME280;63447;49.446;8.666;2023-05-27T02:32:15;101133.88;;;14.93;48.05
74895;BME280;63447;49.446;8.666;2023-05-27T02:34:43;101129.47;;;14.92;47.95
74895;BME280;63447;49.446;8.666;2023-05-27T02:37:10;101131.09;;;14.93;47.98
74895;BME280;63447;49.446;8.666;2023-05-27T02:39:36;101124.22;;;14.79;48.59
74895;BME280;63447;49.446;8.666;2023-05-27T02:42:04;101110.06;;;14.72;47.90
74895;BME280;63447;49.446;8.666;2023-05-27T02:44:29;101124.56;;;14.77;48.50
74895;BME280;63447;49.446;8.666;2023-05-27T02:46:57;101125.25;;;14.74;48.37
74895;BME280;63447;49.446;8.666;2023-05-27T02:49:27;101117.59;;;14.71;48.17
74895;BME280;63447;49.446;8.666;2023-05-27T02:51:55;101113.72;;;14.64;48.55
74895;BME280;63447;49.446;8.666;2023-05-27T02:54:22;101109.31;;;14.63;48.48
74895;BME280;63447;49.446;8.666;2023-05-27T02:56:47;101108.03;;;14.60;48.23
74895;BME280;63447;49.446;8.666;2023-05-27T02:59:13;101121.38;;;14.67;48.62
74895;BME280;63447;49.446;8.666;2023-05-27T03:01:38;101115.56;;;14.59;48.57
74895;BME280;63447;49.446;8.666;2023-05-27T03:04:08;101119.50;;;14.58;48.17
74895;BME280;63447;49.446;8.666;2023-05-27T03:06:36;101105.84;;;14.53;48.14
74895;BME280;63447;49.446;8.666;2023-05-27T03:09:02;101087.28;;;14.45;47.46
74895;BME280;63447;49.446;8.666;2023-05-27T03:11:29;101113.94;;;14.58;48.08
74895;BME280;63447;49.446;8.666;2023-05-27T03:13:58;101101.78;;;14.51;48.30
74895;BME280;63447;49.446;8.666;2023-05-27T03:16:24;101106.28;;;14.35;48.09
74895;BME280;63447;49.446;8.666;2023-05-27T03:18:49;101125.97;;;14.50;48.23
74895;BME280;63447;49.446;8.666;2023-05-27T03:21:15;101124.53;;;14.44;48.10
74895;BME280;63447;49.446;8.666;2023-05-27T03:23:40;101106.72;;;14.45;47.36
74895;BME280;63447;49.446;8.666;2023-05-27T03:26:11;101127.81;;;14.58;47.32
74895;BME280;63447;49.446;8.666;2023-05-27T03:28:39;101137.66;;;14.56;47.47
74895;BME280;63447;49.446;8.666;2023-05-27T03:31:07;101114.84;;;14.50;47.58
74895;BME280;63447;49.446;8.666;2023-05-27T03:33:34;101119.25;;;14.51;47.44
74895;BME280;63447;49.446;8.666;2023-05-27T03:36:00;101123.84;;;14.47;47.76
74895;BME280;63447;49.446;8.666;2023-05-27T03:38:25;101126.84;;;14.42;47.18
74895;BME280;63447;49.446;8.666;2023-05-27T03:40:50;101119.66;;;14.41;47.08
74895;BME280;63447;49.446;8.666;2023-05-27T03:43:16;101115.56;;;14.39;47.74
74895;BME280;63447;49.446;8.666;2023-05-27T03:45:41;101117.84;;;14.37;46.95
74895;BME280;63447;49.446;8.666;2023-05-27T03:48:09;101104.06;;;14.28;47.71
74895;BME280;63447;49.446;8.666;2023-05-27T03:50:34;101123.56;;;14.40;47.63
74895;BME280;63447;49.446;8.666;2023-05-27T03:53:09;101113.56;;;14.27;47.41
74895;BME280;63447;49.446;8.666;2023-05-27T03:55:39;101123.75;;;14.35;47.85
74895;BME280;63447;49.446;8.666;2023-05-27T03:58:09;101133.38;;;14.38;47.41
74895;BME280;63447;49.446;8.666;2023-05-27T04:00:34;101126.03;;;14.42;47.21
74895;BME280;63447;49.446;8.666;2023-05-27T04:03:02;101129.41;;;14.47;47.52
74895;BME280;63447;49.446;8.666;2023-05-27T04:05:27;101125.84;;;14.38;46.77
74895;BME280;63447;49.446;8.666;2023-05-27T04:07:52;101133.19;;;14.43;47.87
74895;BME280;63447;49.446;8.666;2023-05-27T04:10:18;101129.28;;;14.44;47.16
74895;BME280;63447;49.446;8.666;2023-05-27T04:12:45;101103.13;;;14.24;46.46
74895;BME280;63447;49.446;8.666;2023-05-27T04:15:13;101128.94;;;14.45;47.06
74895;BME280;63447;49.446;8.666;2023-05-27T04:17:43;101127.97;;;14.41;47.44
74895;BME280;63447;49.446;8.666;2023-05-27T04:20:11;101125.47;;;14.48;46.70
74895;BME280;63447;49.446;8.666;2023-05-27T04:22:40;101136.97;;;14.59;46.74
74895;BME280;63447;49.446;8.666;2023-05-27T04:25:13;101134.81;;;14.65;46.86
74895;BME280;63447;49.446;8.666;2023-05-27T04:27:43;101128.44;;;14.64;47.32
74895;BME280;63447;49.446;8.666;2023-05-27T04:30:08;101121.66;;;14.74;46.36
74895;BME280;63447;49.446;8.666;2023-05-27T04:32:36;101124.91;;;14.76;46.74
74895;BME280;63447;49.446;8.666;2023-05-27T04:35:05;101130.81;;;14.86;46.02
74895;BME280;63447;49.446;8.666;2023-05-27T04:37:37;101129.00;;;14.90;46.20
74895;BME280;63447;49.446;8.666;2023-05-27T04:40:06;101127.84;;;14.91;46.55
74895;BME280;63447;49.446;8.666;2023-05-27T04:42:35;101143.16;;;14.98;47.19
74895;BME280;63447;49.446;8.666;2023-05-27T04:45:04;101138.81;;;14.88;47.21
74895;BME280;63447;49.446;8.666;2023-05-27T04:47:31;101133.31;;;15.00;47.13
74895;BME280;63447;49.446;8.666;2023-05-27T04:49:59;101122.41;;;15.07;47.58
74895;BME280;63447;49.446;8.666;2023-05-27T04:52:27;101127.09;;;15.15;47.02
74895;BME280;63447;49.446;8.666;2023-05-27T04:54:55;101134.06;;;15.21;47.46
74895;BME280;63447;49.446;8.666;2023-05-27T04:57:23;101121.56;;;15.27;46.94
74895;BME280;63447;49.446;8.666;2023-05-27T04:59:48;101127.81;;;15.37;47.04
74895;BME280;63447;49.446;8.666;2023-05-27T05:02:31;101121.91;;;15.26;46.84
74895;BME280;63447;49.446;8.666;2023-05-27T05:05:09;101114.59;;;15.34;47.09
74895;BME280;63447;49.446;8.666;2023-05-27T05:07:38;101119.47;;;15.24;46.92
74895;BME280;63447;49.446;8.666;2023-05-27T05:10:08;101123.19;;;15.28;46.70
74895;BME280;63447;49.446;8.666;2023-05-27T05:12:38;101130.72;;;15.40;45.87
74895;BME280;63447;49.446;8.666;2023-05-27T05:15:10;101137.22;;;15.44;47.11
74895;BME280;63447;49.446;8.666;2023-05-27T05:17:38;101123.22;;;15.53;46.62
74895;BME280;63447;49.446;8.666;2023-05-27T05:20:04;101132.94;;;15.47;47.61
74895;BME280;63447;49.446;8.666;2023-05-27T05:22:30;101126.13;;;15.56;47.20
74895;BME280;63447;49.446;8.666;2023-05-27T05:24:58;101129.25;;;15.67;46.66
74895;BME280;63447;49.446;8.666;2023-05-27T05:27:24;101136.34;;;15.77;47.10
74895;BME280;63447;49.446;8.666;2023-05-27T05:29:52;101133.66;;;15.92;46.05
74895;BME280;63447;49.446;8.666;2023-05-27T05:32:17;101132.63;;;15.85;47.54
74895;BME280;63447;49.446;8.666;2023-05-27T05:34:48;101138.84;;;16.06;45.52
74895;BME280;63447;49.446;8.666;2023-05-27T05:37:15;101131.66;;;16.05;45.81
74895;BME280;63447;49.446;8.666;2023-05-27T05:39:41;101130.56;;;16.22;45.86
74895;BME280;63447;49.446;8.666;2023-05-27T05:42:10;101139.28;;;16.33;45.83
74895;BME280;63447;49.446;8.666;2023-05-27T05:44:35;101149.44;;;16.41;47.56
74895;BME280;63447;49.446;8.666;2023-05-27T05:47:01;101139.81;;;16.38;46.41
74895;BME280;63447;49.446;8.666;2023-05-27T05:49:27;101146.13;;;16.35;45.15
74895;BME280;63447;49.446;8.666;2023-05-27T05:51:52;101151.75;;;16.39;45.67
74895;BME280;63447;49.446;8.666;2023-05-27T05:54:17;101150.09;;;16.62;43.93
74895;BME280;63447;49.446;8.666;2023-05-27T05:56:43;101149.03;;;16.67;44.17
74895;BME280;63447;49.446;8.666;2023-05-27T05:59:08;101145.91;;;16.68;44.06
74895;BME280;63447;49.446;8.666;2023-05-27T06:01:35;101153.97;;;16.85;43.24
74895;BME280;63447;49.446;8.666;2023-05-27T06:04:01;101138.66;;;16.79;43.68
74895;BME280;63447;49.446;8.666;2023-05-27T06:06:31;101145.44;;;16.94;43.99
74895;BME280;63447;49.446;8.666;2023-05-27T06:08:59;101146.69;;;16.96;43.25
74895;BME280;63447;49.446;8.666;2023-05-27T06:11:27;101149.53;;;17.12;42.67
74895;BME280;63447;49.446;8.666;2023-05-27T06:13:54;101146.09;;;17.03;43.72
74895;BME280;63447;49.446;8.666;2023-05-27T06:16:22;101153.59;;;17.15;44.63
74895;BME280;63447;49.446;8.666;2023-05-27T06:18:50;101150.88;;;17.18;43.78
74895;BME280;63447;49.446;8.666;2023-05-27T06:21:17;101157.34;;;17.22;43.49
74895;BME280;63447;49.446;8.666;2023-05-27T06:23:44;101157.47;;;17.26;44.38
74895;BME280;63447;49.446;8.666;2023-05-27T06:26:10;101145.69;;;17.33;42.71
74895;BME280;63447;49.446;8.666;2023-05-27T06:28:35;101148.81;;;17.47;42.08
74895;BME280;63447;49.446;8.666;2023-05-27T06:31:00;101155.06;;;17.40;42.66
74895;BME280;63447;49.446;8.666;2023-05-27T06:33:28;101159.47;;;17.57;44.15
74895;BME280;63447;49.446;8.666;2023-05-27T06:35:53;101159.75;;;17.68;42.29
74895;BME280;63447;49.446;8.666;2023-05-27T06:38:19;101138.94;;;17.49;42.45
74895;BME280;63447;49.446;8.666;2023-05-27T06:40:44;101147.94;;;17.74;41.76
74895;BME280;63447;49.446;8.666;2023-05-27T06:43:10;101148.50;;;17.80;42.34
74895;BME280;63447;49.446;8.666;2023-05-27T06:45:37;101150.38;;;17.76;41.97
74895;BME280;63447;49.446;8.666;2023-05-27T06:48:05;101150.38;;;17.91;40.19
74895;BME280;63447;49.446;8.666;2023-05-27T06:50:31;101152.00;;;17.92;42.50
74895;BME280;63447;49.446;8.666;2023-05-27T06:53:01;101145.88;;;17.87;40.35
74895;BME280;63447;49.446;8.666;2023-05-27T06:55:31;101137.63;;;18.10;40.85
74895;BME280;63447;49.446;8.666;2023-05-27T06:57:59;101147.94;;;18.25;40.51
74895;BME280;63447;49.446;8.666;2023-05-27T07:00:24;101148.19;;;18.36;40.24
74895;BME280;63447;49.446;8.666;2023-05-27T07:02:51;101135.84;;;18.37;38.80
74895;BME280;63447;49.446;8.666;2023-05-27T07:05:16;101141.06;;;18.38;39.36
74895;BME280;63447;49.446;8.666;2023-05-27T07:07:41;101121.91;;;18.21;40.15
74895;BME280;63447;49.446;8.666;2023-05-27T07:10:12;101144.78;;;18.26;39.37
74895;BME280;63447;49.446;8.666;2023-05-27T07:12:40;101148.53;;;17.99;39.94
74895;BME280;63447;49.446;8.666;2023-05-27T07:15:10;101141.75;;;18.16;40.37
74895;BME280;63447;49.446;8.666;2023-05-27T07:17:38;101136.75;;;18.25;40.17
74895;BME280;63447;49.446;8.666;2023-05-27T07:20:06;101130.81;;;18.26;40.70
74895;BME280;63447;49.446;8.666;2023-05-27T07:22:32;101140.47;;;18.48;43.10
74895;BME280;63447;49.446;8.666;2023-05-27T07:24:57;101134.06;;;18.48;40.56
74895;BME280;63447;49.446;8.666;2023-05-27T07:27:25;101141.06;;;18.38;40.47
74895;BME280;63447;49.446;8.666;2023-05-27T07:29:50;101146.22;;;18.55;40.89
74895;BME280;63447;49.446;8.666;2023-05-27T07:32:16;101139.09;;;18.77;40.42
74895;BME280;63447;49.446;8.666;2023-05-27T07:34:46;101140.31;;;18.99;39.61
74895;BME280;63447;49.446;8.666;2023-05-27T07:37:13;101132.19;;;18.90;38.76
74895;BME280;63447;49.446;8.666;2023-05-27T07:39:41;101137.38;;;19.11;38.33
74895;BME280;63447;49.446;8.666;2023-05-27T07:42:08;101134.81;;;19.25;38.58
74895;BME280;63447;49.446;8.666;2023-05-27T07:44:34;101116.78;;;19.23;39.50
74895;BME280;63447;49.446;8.666;2023-05-27T07:46:59;101124.06;;;19.27;39.44
74895;BME280;63447;49.446;8.666;2023-05-27T07:49:25;101129.47;;;19.40;38.92
74895;BME280;63447;49.446;8.666;2023-05-27T07:51:51;101116.47;;;19.28;38.20
74895;BME280;63447;49.446;8.666;2023-05-27T07:54:16;101113.00;;;19.12;38.94
74895;BME280;63447;49.446;8.666;2023-05-27T07:56:41;101115.34;;;19.10;38.67
74895;BME280;63447;49.446;8.666;2023-05-27T07:59:07;101112.94;;;19.08;38.53
74895;BME280;63447;49.446;8.666;2023-05-27T08:01:32;101107.09;;;19.17;38.58
74895;BME280;63447;49.446;8.666;2023-05-27T08:03:58;101115.13;;;19.18;38.50
74895;BME280;63447;49.446;8.666;2023-05-27T08:06:29;101088.03;;;19.22;38.77
74895;BME280;63447;49.446;8.666;2023-05-27T08:08:54;101112.44;;;19.25;39.13
74895;BME280;63447;49.446;8.666;2023-05-27T08:11:19;101120.09;;;19.28;38.56
74895;BME280;63447;49.446;8.666;2023-05-27T08:13:45;101106.78;;;19.22;38.35
74895;BME280;63447;49.446;8.666;2023-05-27T08:16:11;101109.75;;;19.32;38.67
74895;BME280;63447;49.446;8.666;2023-05-27T08:18:36;101109.22;;;19.46;38.51
74895;BME280;63447;49.446;8.666;2023-05-27T08:21:04;101095.97;;;19.43;38.36
74895;BME280;63447;49.446;8.666;2023-05-27T08:23:29;101096.28;;;19.61;39.18
74895;BME280;63447;49.446;8.666;2023-05-27T08:25:55;101100.38;;;19.67;38.53
74895;BME280;63447;49.446;8.666;2023-05-27T08:28:20;101091.31;;;19.77;38.15
74895;BME280;63447;49.446;8.666;2023-05-27T08:30:48;101094.50;;;19.76;38.87
74895;BME280;63447;49.446;8.666;2023-05-27T08:33:13;101099.19;;;19.94;38.23
74895;BME280;63447;49.446;8.666;2023-05-27T08:35:39;101094.97;;;19.81;38.08
74895;BME280;63447;49.446;8.666;2023-05-27T08:38:04;101086.63;;;19.85;37.59
74895;BME280;63447;49.446;8.666;2023-05-27T08:40:30;101088.75;;;19.91;38.18
74895;BME280;63447;49.446;8.666;2023-05-27T08:42:55;101090.47;;;19.99;38.10
74895;BME280;63447;49.446;8.666;2023-05-27T08:45:21;101077.81;;;20.13;39.58
74895;BME280;63447;49.446;8.666;2023-05-27T08:47:47;101093.31;;;20.33;37.51
74895;BME280;63447;49.446;8.666;2023-05-27T08:50:16;101081.72;;;20.34;37.04
74895;BME280;63447;49.446;8.666;2023-05-27T08:52:46;101082.81;;;20.26;38.05
74895;BME280;63447;49.446;8.666;2023-05-27T08:55:15;101075.91;;;20.47;37.39
74895;BME280;63447;49.446;8.666;2023-05-27T08:57:50;101076.38;;;20.56;37.08
74895;BME280;63447;49.446;8.666;2023-05-27T09:00:22;101075.25;;;20.30;37.69
74895;BME280;63447;49.446;8.666;2023-05-27T09:02:48;101074.19;;;20.72;37.57
74895;BME280;63447;49.446;8.666;2023-05-27T09:05:16;101066.09;;;21.04;38.25
74895;BME280;63447;49.446;8.666;2023-05-27T09:07:42;101064.72;;;21.24;36.64
74895;BME280;63447;49.446;8.666;2023-05-27T09:10:08;101068.44;;;20.61;37.54
74895;BME280;63447;49.446;8.666;2023-05-27T09:12:34;101060.94;;;21.10;38.70
74895;BME280;63447;49.446;8.666;2023-05-27T09:15:00;101059.50;;;21.23;37.08
74895;BME280;63447;49.446;8.666;2023-05-27T09:17:26;101063.69;;;21.47;36.68
74895;BME280;63447;49.446;8.666;2023-05-27T09:19:52;101065.34;;;21.51;36.69
74895;BME280;63447;49.446;8.666;2023-05-27T09:22:23;101054.13;;;21.55;36.56
74895;BME280;63447;49.446;8.666;2023-05-27T09:24:51;101050.97;;;21.63;37.07
74895;BME280;63447;49.446;8.666;2023-05-27T09:27:17;101048.25;;;21.78;36.63
74895;BME280;63447;49.446;8.666;2023-05-27T09:29:42;101051.53;;;21.90;36.54
74895;BME280;63447;49.446;8.666;2023-05-27T09:32:08;101052.84;;;22.04;35.84
74895;BME280;63447;49.446;8.666;2023-05-27T09:34:40;101047.06;;;21.79;36.31
74895;BME280;63447;49.446;8.666;2023-05-27T09:37:05;101048.63;;;21.73;36.06
74895;BME280;63447;49.446;8.666;2023-05-27T09:39:32;101046.69;;;21.80;35.94
74895;BME280;63447;49.446;8.666;2023-05-27T09:42:00;101039.59;;;22.00;36.54
74895;BME280;63447;49.446;8.666;2023-05-27T09:44:31;101045.09;;;21.90;35.87
74895;BME280;63447;49.446;8.666;2023-05-27T09:47:04;101033.59;;;22.13;37.46
74895;BME280;63447;49.446;8.666;2023-05-27T09:49:32;101036.53;;;22.38;36.30
74895;BME280;63447;49.446;8.666;2023-05-27T09:51:58;101020.84;;;22.37;35.31
74895;BME280;63447;49.446;8.666;2023-05-27T09:54:27;101036.22;;;22.71;36.03
74895;BME280;63447;49.446;8.666;2023-05-27T09:56:54;101033.41;;;22.67;35.64
74895;BME280;63447;49.446;8.666;2023-05-27T09:59:23;101027.75;;;22.64;34.82
74895;BME280;63447;49.446;8.666;2023-05-27T10:01:48;101018.94;;;22.58;34.92
74895;BME280;63447;49.446;8.666;2023-05-27T10:04:18;101021.41;;;22.88;35.66
74895;BME280;63447;49.446;8.666;2023-05-27T10:06:47;101017.78;;;22.88;35.31
74895;BME280;63447;49.446;8.666;2023-05-27T10:09:13;101010.13;;;22.88;35.36
74895;BME280;63447;49.446;8.666;2023-05-27T10:11:43;101013.78;;;22.92;35.04
74895;BME280;63447;49.446;8.666;2023-05-27T10:14:09;101011.38;;;22.84;35.07
74895;BME280;63447;49.446;8.666;2023-05-27T10:16:50;101004.94;;;23.01;35.26
74895;BME280;63447;49.446;8.666;2023-05-27T10:19:16;101000.50;;;23.28;35.38
74895;BME280;63447;49.446;8.666;2023-05-27T10:21:44;101006.53;;;23.23;35.00
74895;BME280;63447;49.446;8.666;2023-05-27T10:24:10;100998.06;;;23.45;34.32
74895;BME280;63447;49.446;8.666;2023-05-27T10:26:41;100999.31;;;23.01;34.56
74895;BME280;63447;49.446;8.666;2023-05-27T10:29:12;101000.88;;;23.48;36.41
74895;BME280;63447;49.446;8.666;2023-05-27T10:31:48;100998.75;;;23.98;33.80
74895;BME280;63447;49.446;8.666;2023-05-27T10:34:15;100982.22;;;24.04;32.68
74895;BME280;63447;49.446;8.666;2023-05-27T10:36:40;100989.72;;;24.43;35.11
74895;BME280;63447;49.446;8.666;2023-05-27T10:39:20;100978.59;;;24.11;33.70
74895;BME280;63447;49.446;8.666;2023-05-27T10:41:50;100981.22;;;24.46;31.10
74895;BME280;63447;49.446;8.666;2023-05-27T10:44:28;100982.34;;;24.66;31.75
74895;BME280;63447;49.446;8.666;2023-05-27T10:49:38;100985.78;;;24.29;31.76
74895;BME280;63447;49.446;8.666;2023-05-27T10:54:36;100975.47;;;24.67;30.84
74895;BME280;63447;49.446;8.666;2023-05-27T10:57:02;100976.28;;;23.84;31.07
74895;BME280;63447;49.446;8.666;2023-05-27T11:02:09;100970.66;;;23.74;31.04
74895;BME280;63447;49.446;8.666;2023-05-27T11:04:36;100960.81;;;24.17;31.57
74895;BME280;63447;49.446;8.666;2023-05-27T11:07:04;100967.91;;;23.56;31.62
74895;BME280;63447;49.446;8.666;2023-05-27T11:09:30;100962.50;;;24.08;31.26
74895;BME280;63447;49.446;8.666;2023-05-27T11:12:00;100959.00;;;23.68;31.63
74895;BME280;63447;49.446;8.666;2023-05-27T11:14:27;100961.72;;;24.00;31.05
74895;BME280;63447;49.446;8.666;2023-05-27T11:16:52;100954.13;;;24.63;31.52
74895;BME280;63447;49.446;8.666;2023-05-27T11:19:18;100949.47;;;25.39;29.40
74895;BME280;63447;49.446;8.666;2023-05-27T11:21:47;100954.94;;;24.63;29.77
74895;BME280;63447;49.446;8.666;2023-05-27T11:24:21;100946.91;;;25.51;29.80
74895;BME280;63447;49.446;8.666;2023-05-27T11:26:47;100939.81;;;26.04;28.87
74895;BME280;63447;49.446;8.666;2023-05-27T11:29:13;100932.03;;;25.81;28.83
74895;BME280;63447;49.446;8.666;2023-05-27T11:31:47;100935.81;;;26.01;28.36
74895;BME280;63447;49.446;8.666;2023-05-27T11:34:16;100940.16;;;26.40;29.15
74895;BME280;63447;49.446;8.666;2023-05-27T11:36:44;100913.59;;;27.08;28.92
74895;BME280;63447;49.446;8.666;2023-05-27T11:39:14;100926.47;;;27.12;26.10
74895;BME280;63447;49.446;8.666;2023-05-27T11:42:08;100926.78;;;27.18;27.25
74895;BME280;63447;49.446;8.666;2023-05-27T11:44:37;100913.38;;;27.42;26.37
74895;BME280;63447;49.446;8.666;2023-05-27T11:47:02;100931.16;;;26.49;26.60
74895;BME280;63447;49.446;8.666;2023-05-27T11:49:28;100917.63;;;26.83;27.38
74895;BME280;63447;49.446;8.666;2023-05-27T11:51:56;100919.31;;;27.27;27.13
74895;BME280;63447;49.446;8.666;2023-05-27T11:54:25;100910.16;;;27.40;27.67
74895;BME280;63447;49.446;8.666;2023-05-27T11:56:52;100910.56;;;26.72;26.54
74895;BME280;63447;49.446;8.666;2023-05-27T11:59:18;100903.72;;;26.15;27.12
74895;BME280;63447;49.446;8.666;2023-05-27T12:01:44;100902.78;;;26.52;26.10
74895;BME280;63447;49.446;8.666;2023-05-27T12:04:09;100896.63;;;26.57;25.96
74895;BME280;63447;49.446;8.666;2023-05-27T12:06:38;100883.88;;;26.96;26.83
74895;BME280;63447;49.446;8.666;2023-05-27T12:09:04;100887.38;;;27.03;26.31
74895;BME280;63447;49.446;8.666;2023-05-27T12:11:32;100885.19;;;26.88;26.63
74895;BME280;63447;49.446;8.666;2023-05-27T12:14:00;100875.25;;;27.66;26.04
74895;BME280;63447;49.446;8.666;2023-05-27T12:16:26;100875.38;;;26.96;26.80
74895;BME280;63447;49.446;8.666;2023-05-27T12:18:52;100876.59;;;27.97;26.38
74895;BME280;63447;49.446;8.666;2023-05-27T12:21:18;100878.44;;;28.24;25.37
74895;BME280;63447;49.446;8.666;2023-05-27T12:23:49;100873.41;;;28.48;23.04
74895;BME280;63447;49.446;8.666;2023-05-27T12:26:15;100863.66;;;28.65;24.15
74895;BME280;63447;49.446;8.666;2023-05-27T12:28:41;100865.13;;;28.21;25.22
74895;BME280;63447;49.446;8.666;2023-05-27T12:31:10;100857.69;;;28.76;24.98
74895;BME280;63447;49.446;8.666;2023-05-27T12:33:39;100847.63;;;28.06;23.68
74895;BME280;63447;49.446;8.666;2023-05-27T12:36:13;100847.06;;;27.95;23.30
74895;BME280;63447;49.446;8.666;2023-05-27T12:38:40;100849.97;;;27.91;25.58
74895;BME280;63447;49.446;8.666;2023-05-27T12:41:05;100857.63;;;28.11;24.26
74895;BME280;63447;49.446;8.666;2023-05-27T12:43:30;100836.53;;;28.12;25.37
74895;BME280;63447;49.446;8.666;2023-05-27T12:45:56;100831.50;;;28.19;22.88
74895;BME280;63447;49.446;8.666;2023-05-27T12:48:22;100839.03;;;26.44;26.02
74895;BME280;63447;49.446;8.666;2023-05-27T12:50:48;100848.66;;;27.96;26.09
74895;BME280;63447;49.446;8.666;2023-05-27T12:53:15;100850.84;;;27.09;25.02
74895;BME280;63447;49.446;8.666;2023-05-27T12:55:42;100845.94;;;27.53;24.89
74895;BME280;63447;49.446;8.666;2023-05-27T12:58:13;100837.03;;;27.90;25.23
74895;BME280;63447;49.446;8.666;2023-05-27T13:00:41;100839.44;;;28.28;23.58
74895;BME280;63447;49.446;8.666;2023-05-27T13:03:14;100836.03;;;28.98;23.27
74895;BME280;63447;49.446;8.666;2023-05-27T13:05:40;100826.28;;;28.34;24.45
74895;BME280;63447;49.446;8.666;2023-05-27T13:08:13;100824.81;;;29.07;22.81